Aeroporto :
LOGIN :

Iscrizione | Disclaimer

   EN    FR    IT 

 










Sommario :    VFR   VFR Marginale   IFR   IFR Intensivo   IFR Molto Intensivo
Visibilità : 
Base nubi : 
>= 8 km
>= 3000ft
5 / 8 km
1000 / 3000 ft
1500m / 5 km
500 / 1000 ft
800 / 1500m
200 / 500 ft
< 800m
< 200 ft
Simboli :   Temporali  Nebbia  Neve Forte  Precipitazioni Forti  Vento > 20 kt
SIGMETs :   Varie  Temporali  Ghiacco  Turbolenza  Onda orograficha  Ceneri Vulcaniche






- Altitudine del aeroporto : 137 ft
- Codice IATA : ARN


ESSA - Stockholm-Arlanda

ULTIMO METAR :
  • 251120Z 25007KT CAVOK 02/M04 Q1009 R01L/71//69 R08/71//65 R01R/71//68 NOSIG

METARs OBSOLETI :
  • 251050Z 26005KT CAVOK 01/M04 Q1009 R01L/71//69 R08/71//65 R01R/71//68 NOSIG
  • 251020Z 25005KT CAVOK 01/M04 Q1009 R01L/71//69 R08/71//65 R01R/71//68 NOSIG
  • 250950Z 27005KT 230V300 CAVOK 01/M04 Q1008 R01L/71//69 R08/71//65 R01R/71//68 NOSIG
  • 250920Z 26006KT CAVOK 00/M04 Q1008 R01L/71//69 R08/71//65 R01R/71//68 NOSIG
  • 250850Z 25006KT CAVOK 00/M04 Q1008 R01L/71//69 R08/71//65 R01R/71//68 NOSIG

TAF TAF ESSA
Valido dal 25 a 12 ore il 26 a 12 ore UTC


251130Z 2512/2612 24006KT CAVOK
PROB40 2523/2608 BKN012



MetMap, La meteo Aeronautica in un colpo d'occhio ! - Copyright ORBIFLY Dicembre 2007 - Disclaimer

ORBIFLY MET'MAP TEAM :

Programmazione e sviluppo : Alexandra Zaïnal
Concezione : Baudouin d'Aumeries
Aiuto per la programmazione : Marc-Olivier Méhu
Supporto tecnico e logistico : Manuel Goepfert
Aiuto per la traduzione : Arnaldo La Scala

Contatto : metmap@orbifly.com




FONTI E CREDITI :

   NOAA